createdAt,value
2022-08-05T00:00:15.986Z,22.54
2022-08-05T00:01:20.707Z,22.51
2022-08-05T00:02:15.773Z,22.49
2022-08-05T00:03:15.675Z,22.48
2022-08-05T00:04:14.686Z,22.46
2022-08-05T00:06:03.301Z,22.44
2022-08-05T00:06:27.876Z,22.41
2022-08-05T00:07:58.710Z,22.39
2022-08-05T00:08:32.561Z,22.39
2022-08-05T00:09:16.038Z,22.36
2022-08-05T00:10:14.608Z,22.33
2022-08-05T00:11:23.879Z,22.31
2022-08-05T00:12:15.599Z,22.26
2022-08-05T00:13:18.681Z,22.20
2022-08-05T00:14:17.092Z,22.17
2022-08-05T00:15:55.374Z,22.12
2022-08-05T00:16:15.558Z,22.09
2022-08-05T00:17:18.715Z,22.08
2022-08-05T00:18:21.555Z,22.05
2022-08-05T00:19:15.519Z,22.04
2022-08-05T00:20:14.468Z,22.01
2022-08-05T00:21:15.457Z,21.98
2022-08-05T00:22:14.448Z,21.93
2022-08-05T00:23:14.462Z,21.90
2022-08-05T00:24:16.061Z,21.90
2022-08-05T00:25:14.409Z,21.85
2022-08-05T00:26:14.420Z,21.85
2022-08-05T00:27:16.894Z,21.85
2022-08-05T00:28:14.379Z,21.81
2022-08-05T00:29:14.380Z,21.79
2022-08-05T00:30:14.347Z,21.74
2022-08-05T00:31:14.360Z,21.71
2022-08-05T00:32:15.712Z,21.68
2022-08-05T00:33:15.678Z,21.66
2022-08-05T00:34:56.987Z,21.61
2022-08-05T00:35:15.279Z,21.59
2022-08-05T00:37:11.754Z,21.58
2022-08-05T00:37:15.273Z,21.56
2022-08-05T00:38:14.266Z,21.55
2022-08-05T00:39:14.456Z,21.53
2022-08-05T00:40:14.210Z,21.53
2022-08-05T00:41:14.202Z,21.51
2022-08-05T00:42:31.787Z,21.49
2022-08-05T00:43:15.344Z,21.51
2022-08-05T00:44:14.205Z,21.49
2022-08-05T00:45:14.200Z,21.49
2022-08-05T00:46:14.150Z,21.48
2022-08-05T00:47:14.110Z,21.46
2022-08-05T00:48:14.119Z,21.45
2022-08-05T00:49:14.129Z,21.43
2022-08-05T00:50:14.096Z,21.46
2022-08-05T00:51:50.443Z,21.43
2022-08-05T00:52:15.061Z,21.43
2022-08-05T00:54:00.765Z,21.42
2022-08-05T00:54:15.021Z,21.42
2022-08-05T00:55:14.019Z,21.40
2022-08-05T00:56:14.021Z,21.38
2022-08-05T00:57:14.001Z,21.40
2022-08-05T00:58:13.994Z,21.37
2022-08-05T00:59:13.961Z,21.37
2022-08-05T01:00:13.940Z,21.37
2022-08-05T01:01:13.994Z,21.36
2022-08-05T01:02:13.921Z,21.37
2022-08-05T01:03:22.930Z,21.37
2022-08-05T01:04:15.792Z,21.38
2022-08-05T01:05:13.894Z,21.36
2022-08-05T01:06:15.236Z,21.36
2022-08-05T01:07:13.970Z,21.36
2022-08-05T01:08:40.996Z,21.33
2022-08-05T01:09:14.821Z,21.28
2022-08-05T01:10:13.831Z,21.26
2022-08-05T01:11:13.878Z,21.21
2022-08-05T01:12:18.819Z,21.18
2022-08-05T01:13:22.439Z,21.18
2022-08-05T01:14:15.422Z,21.13
2022-08-05T01:15:36.034Z,21.11
2022-08-05T01:16:14.732Z,21.08
2022-08-05T01:17:14.773Z,21.08
2022-08-05T01:18:13.741Z,21.08
2022-08-05T01:19:14.377Z,21.06
2022-08-05T01:20:13.683Z,21.06
2022-08-05T01:21:13.661Z,21.05
2022-08-05T01:22:18.872Z,21.01
2022-08-05T01:23:15.530Z,20.98
2022-08-05T01:24:14.633Z,21.00
2022-08-05T01:25:13.755Z,20.98
2022-08-05T01:26:13.602Z,20.97
2022-08-05T01:27:19.505Z,20.96
2022-08-05T01:28:14.583Z,20.96
2022-08-05T01:29:13.554Z,20.96
2022-08-05T01:30:18.670Z,20.94
2022-08-05T01:31:14.524Z,20.91
2022-08-05T01:32:18.378Z,20.91
2022-08-05T01:33:14.515Z,20.91
2022-08-05T01:34:14.497Z,20.87
2022-08-05T01:35:13.486Z,20.83
2022-08-05T01:36:16.219Z,20.81
2022-08-05T01:37:24.741Z,20.76
2022-08-05T01:38:14.562Z,20.73
2022-08-05T01:39:14.470Z,20.71
2022-08-05T01:40:14.423Z,20.68
2022-08-05T01:41:13.394Z,20.63
2022-08-05T01:42:13.738Z,20.61
2022-08-05T01:43:22.068Z,20.60
2022-08-05T01:44:15.331Z,20.58
2022-08-05T01:45:13.353Z,20.56
2022-08-05T01:46:16.255Z,20.54
2022-08-05T01:47:14.327Z,20.51
2022-08-05T01:48:13.332Z,20.50
2022-08-05T01:49:23.840Z,20.50
2022-08-05T01:50:15.696Z,20.50
2022-08-05T01:51:13.283Z,20.46
2022-08-05T01:52:17.922Z,20.42
2022-08-05T01:53:14.244Z,20.38
2022-08-05T01:54:14.233Z,20.38
2022-08-05T01:55:13.222Z,20.37
2022-08-05T01:56:13.221Z,20.37
2022-08-05T01:58:11.871Z,20.35
2022-08-05T01:58:15.641Z,20.33
2022-08-05T01:59:13.153Z,20.27
2022-08-05T02:00:13.188Z,20.23
2022-08-05T02:01:13.141Z,20.20
2022-08-05T02:02:13.183Z,20.17
2022-08-05T02:03:16.343Z,20.17
2022-08-05T02:04:14.098Z,20.16
2022-08-05T02:05:13.083Z,20.15
2022-08-05T02:06:37.191Z,20.12
2022-08-05T02:07:22.030Z,20.12
2022-08-05T02:08:14.046Z,20.13
2022-08-05T02:09:16.323Z,20.13
2022-08-05T02:10:17.488Z,20.13
2022-08-05T02:11:12.994Z,20.12
2022-08-05T02:12:12.985Z,20.13
2022-08-05T02:13:16.324Z,20.10
2022-08-05T02:14:13.110Z,20.10
2022-08-05T02:15:12.967Z,20.08
2022-08-05T02:16:16.298Z,20.08
2022-08-05T02:17:29.948Z,20.08
2022-08-05T02:18:33.084Z,20.08
2022-08-05T02:19:13.916Z,20.07
2022-08-05T02:20:12.883Z,20.08
2022-08-05T02:21:14.717Z,20.07
2022-08-05T02:22:25.422Z,20.04
2022-08-05T02:23:13.847Z,20.04
2022-08-05T02:24:12.835Z,20.01
2022-08-05T02:25:13.805Z,20.00
2022-08-05T02:26:12.795Z,19.98
2022-08-05T02:27:12.787Z,19.97
2022-08-05T02:28:12.804Z,19.95
2022-08-05T02:29:21.622Z,19.95
2022-08-05T02:30:13.745Z,19.92
2022-08-05T02:31:13.851Z,19.92
2022-08-05T02:32:12.725Z,19.87
2022-08-05T02:33:13.726Z,19.85
2022-08-05T02:34:13.706Z,19.86
2022-08-05T02:35:14.279Z,19.86
2022-08-05T02:36:13.270Z,19.83
2022-08-05T02:37:12.666Z,19.80
2022-08-05T02:38:13.321Z,19.80
2022-08-05T02:39:13.836Z,19.78
2022-08-05T02:40:12.616Z,19.76
2022-08-05T02:41:17.255Z,19.72
2022-08-05T02:42:25.950Z,19.67
2022-08-05T02:43:13.585Z,19.64
2022-08-05T02:44:13.478Z,19.62
2022-08-05T02:45:12.545Z,19.61
2022-08-05T02:46:12.546Z,19.58
2022-08-05T02:47:12.516Z,19.57
2022-08-05T02:48:13.030Z,19.55
2022-08-05T02:49:12.506Z,19.55
2022-08-05T02:50:12.476Z,19.57
2022-08-05T02:51:12.459Z,19.55
2022-08-05T02:52:25.897Z,19.52
2022-08-05T02:53:16.131Z,19.50
2022-08-05T02:54:36.170Z,19.46
2022-08-05T02:55:13.457Z,19.45
2022-08-05T02:56:16.102Z,19.43
2022-08-05T02:58:13.424Z,19.35
2022-08-05T02:58:20.177Z,19.39
2022-08-05T02:59:12.357Z,19.34
2022-08-05T03:00:12.378Z,19.31
2022-08-05T03:01:12.357Z,19.31
2022-08-05T03:02:12.346Z,19.30
2022-08-05T03:03:12.316Z,19.31
2022-08-05T03:04:12.943Z,19.30
2022-08-05T03:05:12.275Z,19.34
2022-08-05T03:06:55.568Z,19.38
2022-08-05T03:07:24.687Z,19.38
2022-08-05T03:08:13.513Z,19.35
2022-08-05T03:09:12.229Z,19.34
2022-08-05T03:10:13.395Z,19.32
2022-08-05T03:11:56.655Z,19.34
2022-08-05T03:12:13.197Z,19.31
2022-08-05T03:13:16.545Z,19.30
2022-08-05T03:14:13.299Z,19.30
2022-08-05T03:15:12.357Z,19.27
2022-08-05T03:16:12.135Z,19.25
2022-08-05T03:17:12.116Z,19.23
2022-08-05T03:18:12.114Z,19.20
2022-08-05T03:19:33.046Z,19.17
2022-08-05T03:20:13.593Z,19.16
2022-08-05T03:21:12.097Z,19.15
2022-08-05T03:22:16.686Z,19.13
2022-08-05T03:23:13.028Z,19.10
2022-08-05T03:24:12.016Z,19.10
2022-08-05T03:25:33.974Z,19.09
2022-08-05T03:26:31.716Z,19.06
2022-08-05T03:27:13.019Z,19.05
2022-08-05T03:28:11.999Z,19.01
2022-08-05T03:29:12.419Z,19.01
2022-08-05T03:30:12.938Z,18.97
2022-08-05T03:31:41.479Z,18.96
2022-08-05T03:32:14.456Z,18.97
2022-08-05T03:33:11.927Z,19.01
2022-08-05T03:34:11.887Z,18.97
2022-08-05T03:35:11.877Z,18.97
2022-08-05T03:36:11.874Z,18.96
2022-08-05T03:37:11.868Z,18.96
2022-08-05T03:38:11.871Z,18.93
2022-08-05T03:39:12.991Z,18.97
2022-08-05T03:40:12.861Z,18.96
2022-08-05T03:41:11.812Z,18.94
2022-08-05T03:42:11.827Z,18.94
2022-08-05T03:43:59.219Z,18.94
2022-08-05T03:44:12.762Z,18.94
2022-08-05T03:45:22.124Z,18.96
2022-08-05T03:46:12.726Z,18.96
2022-08-05T03:47:13.641Z,18.96
2022-08-05T03:48:11.717Z,18.97
2022-08-05T03:49:11.688Z,18.93
2022-08-05T03:50:11.701Z,18.94
2022-08-05T03:52:35.276Z,18.93
2022-08-05T03:52:48.404Z,18.93
2022-08-05T03:55:06.917Z,18.93
2022-08-05T03:56:00.722Z,18.93
2022-08-05T03:56:05.325Z,18.94
2022-08-05T03:56:26.948Z,18.97
2022-08-05T03:57:16.541Z,18.99
2022-08-05T03:58:12.569Z,19.02
2022-08-05T03:59:11.580Z,19.05
2022-08-05T04:00:11.539Z,19.09
2022-08-05T04:01:12.864Z,19.12
2022-08-05T04:02:17.281Z,19.17
2022-08-05T04:03:26.653Z,19.21
2022-08-05T04:04:12.486Z,19.25
2022-08-05T04:05:11.477Z,19.27
2022-08-05T04:06:11.470Z,19.27
2022-08-05T04:07:11.469Z,19.31
2022-08-05T04:08:22.471Z,19.34
2022-08-05T04:09:12.421Z,19.38
2022-08-05T04:10:11.427Z,19.40
2022-08-05T04:11:12.413Z,19.42
2022-08-05T04:12:23.430Z,19.42
2022-08-05T04:13:12.371Z,19.40
2022-08-05T04:14:11.354Z,19.42
2022-08-05T04:15:15.463Z,19.45
2022-08-05T04:16:11.400Z,19.46
2022-08-05T04:17:11.410Z,19.47
2022-08-05T04:18:20.225Z,19.49
2022-08-05T04:19:12.308Z,19.49
2022-08-05T04:20:11.292Z,19.52
2022-08-05T04:21:11.298Z,19.55
2022-08-05T04:22:12.313Z,19.58
2022-08-05T04:23:12.594Z,19.61
2022-08-05T04:24:19.733Z,19.65
2022-08-05T04:25:12.220Z,19.67
2022-08-05T04:26:11.228Z,19.68
2022-08-05T04:27:11.189Z,19.70
2022-08-05T04:28:12.813Z,19.72
2022-08-05T04:29:11.192Z,19.75
2022-08-05T04:30:11.154Z,19.76
2022-08-05T04:31:11.130Z,19.80
2022-08-05T04:32:11.120Z,19.85
2022-08-05T04:33:11.129Z,19.87
2022-08-05T04:34:31.710Z,19.90
2022-08-05T04:35:19.623Z,19.94
2022-08-05T04:36:45.753Z,19.97
2022-08-05T04:37:20.030Z,20.01
2022-08-05T04:38:12.040Z,20.04
2022-08-05T04:39:11.045Z,20.10
2022-08-05T04:40:11.018Z,20.16
2022-08-05T04:41:11.019Z,20.20
2022-08-05T04:42:10.973Z,20.25
2022-08-05T04:43:16.653Z,20.30
2022-08-05T04:44:11.988Z,20.34
2022-08-05T04:45:10.951Z,20.38
2022-08-05T04:46:11.949Z,20.41
2022-08-05T04:47:12.071Z,20.46
2022-08-05T04:48:18.398Z,20.54
2022-08-05T04:49:14.517Z,20.60
2022-08-05T04:50:11.667Z,20.69
2022-08-05T04:51:11.529Z,20.73
2022-08-05T04:52:10.849Z,20.79
2022-08-05T04:53:10.832Z,20.83
2022-08-05T04:54:10.861Z,20.91
2022-08-05T04:55:14.581Z,20.96
2022-08-05T04:56:32.832Z,21.01
2022-08-05T04:57:11.783Z,21.05
2022-08-05T04:58:12.421Z,21.09
2022-08-05T04:59:22.288Z,21.13
2022-08-05T05:00:11.737Z,21.16
2022-08-05T05:01:10.801Z,21.21
2022-08-05T05:02:41.360Z,21.24
2022-08-05T05:03:11.762Z,21.30
2022-08-05T05:04:11.690Z,21.31
2022-08-05T05:05:17.030Z,21.36
2022-08-05T05:06:40.197Z,21.38
2022-08-05T05:07:11.650Z,21.42
2022-08-05T05:08:14.100Z,21.48
2022-08-05T05:09:14.366Z,21.52
2022-08-05T05:10:11.610Z,21.56
2022-08-05T05:11:10.621Z,21.58
2022-08-05T05:12:10.587Z,21.63
2022-08-05T05:13:10.572Z,21.67
2022-08-05T05:14:10.570Z,21.71
2022-08-05T05:15:17.333Z,21.85
2022-08-05T05:16:11.540Z,22.15
2022-08-05T05:17:10.522Z,22.46
2022-08-05T05:18:10.530Z,22.70
2022-08-05T05:19:19.515Z,22.97
2022-08-05T05:20:11.540Z,23.32
2022-08-05T05:21:10.484Z,23.64
2022-08-05T05:22:24.049Z,23.99
2022-08-05T05:23:19.910Z,24.31
2022-08-05T05:24:11.431Z,24.63
2022-08-05T05:25:16.086Z,24.92
2022-08-05T05:26:11.421Z,25.19
2022-08-05T05:27:10.391Z,25.42
2022-08-05T05:28:10.383Z,25.67
2022-08-05T05:29:14.691Z,25.91
2022-08-05T05:30:15.315Z,26.17
2022-08-05T05:31:11.352Z,26.41
2022-08-05T05:32:12.579Z,26.66
2022-08-05T05:33:16.868Z,26.97
2022-08-05T05:34:11.319Z,27.16
2022-08-05T05:35:10.272Z,27.35
2022-08-05T05:36:11.263Z,27.55
2022-08-05T05:37:10.241Z,27.76
2022-08-05T05:38:12.720Z,27.98
2022-08-05T05:39:11.050Z,28.23
2022-08-05T05:40:10.232Z,28.52
2022-08-05T05:41:10.212Z,28.76
2022-08-05T05:42:10.183Z,28.95
2022-08-05T05:43:10.195Z,29.11
2022-08-05T05:44:15.756Z,29.23
2022-08-05T05:45:11.155Z,29.30
2022-08-05T05:46:15.824Z,29.39
2022-08-05T05:47:23.555Z,29.52
2022-08-05T05:48:11.171Z,29.74
2022-08-05T05:49:22.456Z,29.92
2022-08-05T05:50:11.145Z,30.19
2022-08-05T05:51:15.273Z,30.38
2022-08-05T05:52:13.311Z,30.64
2022-08-05T05:53:21.409Z,30.86
2022-08-05T05:54:11.524Z,31.04
2022-08-05T05:55:13.570Z,31.20
2022-08-05T05:56:10.036Z,31.42
2022-08-05T05:57:13.542Z,31.49
2022-08-05T05:58:09.993Z,31.71
2022-08-05T05:59:10.015Z,31.91
2022-08-05T06:00:10.229Z,32.10
2022-08-05T06:01:13.382Z,32.35
2022-08-05T06:02:10.933Z,32.56
2022-08-05T06:03:40.624Z,32.72
2022-08-05T06:04:12.012Z,32.83
2022-08-05T06:05:10.432Z,33.02
2022-08-05T06:06:10.897Z,33.20
2022-08-05T06:07:10.646Z,33.24
2022-08-05T06:08:09.878Z,33.35
2022-08-05T06:09:17.710Z,33.47
2022-08-05T06:10:10.846Z,33.66
2022-08-05T06:11:09.856Z,33.84
2022-08-05T06:12:09.875Z,33.92
2022-08-05T06:13:09.809Z,34.16
2022-08-05T06:14:09.799Z,34.23
2022-08-05T06:15:12.403Z,34.31
2022-08-05T06:16:29.707Z,34.50
2022-08-05T06:17:22.253Z,34.72
2022-08-05T06:18:10.721Z,34.83
2022-08-05T06:19:09.761Z,34.98
2022-08-05T06:20:09.768Z,35.15
2022-08-05T06:21:16.572Z,35.29
2022-08-05T06:22:10.669Z,35.47
2022-08-05T06:23:09.652Z,35.69
2022-08-05T06:24:11.800Z,35.87
2022-08-05T06:25:25.269Z,35.77
2022-08-05T06:26:13.857Z,35.77
2022-08-05T06:27:17.085Z,35.66
2022-08-05T06:28:21.427Z,35.36
2022-08-05T06:29:23.565Z,35.31
2022-08-05T06:30:17.664Z,35.47
2022-08-05T06:31:11.275Z,35.58
2022-08-05T06:32:21.468Z,35.77
2022-08-05T06:33:10.676Z,35.77
2022-08-05T06:34:09.537Z,35.83
2022-08-05T06:35:21.776Z,35.89
2022-08-05T06:36:10.524Z,35.99
2022-08-05T06:37:09.483Z,35.91
2022-08-05T06:38:11.666Z,35.91
2022-08-05T06:39:09.510Z,35.91
2022-08-05T06:40:09.466Z,35.83
2022-08-05T06:41:09.434Z,35.77
2022-08-05T06:42:09.424Z,35.62
2022-08-05T06:43:57.867Z,35.24
2022-08-05T06:44:10.386Z,34.78
2022-08-05T06:45:09.629Z,34.24
2022-08-05T06:46:10.376Z,33.71
2022-08-05T06:47:10.330Z,33.17
2022-08-05T06:48:44.335Z,32.76
2022-08-05T06:49:10.342Z,32.34
2022-08-05T06:50:09.305Z,31.98
2022-08-05T06:51:12.044Z,31.67
2022-08-05T06:52:37.391Z,31.37
2022-08-05T06:53:11.713Z,31.10
2022-08-05T06:54:19.041Z,30.88
2022-08-05T06:55:10.257Z,30.56
2022-08-05T06:56:26.112Z,30.22
2022-08-05T06:57:56.636Z,29.99
2022-08-05T06:58:20.594Z,29.73
2022-08-05T06:59:11.983Z,29.57
2022-08-05T07:00:09.853Z,29.41
2022-08-05T07:01:09.239Z,29.26
2022-08-05T07:02:09.172Z,29.14
2022-08-05T07:03:09.775Z,28.98
2022-08-05T07:04:09.141Z,28.85
2022-08-05T07:05:18.499Z,28.76
2022-08-05T07:06:14.389Z,28.65
2022-08-05T07:07:10.232Z,28.62
2022-08-05T07:08:10.986Z,28.60
2022-08-05T07:09:09.079Z,28.55
2022-08-05T07:10:09.081Z,28.54
2022-08-05T07:11:15.550Z,28.51
2022-08-05T07:12:10.050Z,28.60
2022-08-05T07:13:09.020Z,28.64
2022-08-05T07:14:20.553Z,28.69
2022-08-05T07:15:10.020Z,28.97
2022-08-05T07:16:09.010Z,29.41
2022-08-05T07:18:01.317Z,29.60
2022-08-05T07:18:12.586Z,29.79
2022-08-05T07:19:09.967Z,29.82
2022-08-05T07:20:32.421Z,29.89
2022-08-05T07:21:09.922Z,30.06
2022-08-05T07:22:08.921Z,30.18
2022-08-05T07:23:08.882Z,30.49
2022-08-05T07:24:11.335Z,31.00
2022-08-05T07:25:22.834Z,31.57
2022-08-05T07:26:09.873Z,32.09
2022-08-05T07:27:09.040Z,32.22
2022-08-05T07:28:11.606Z,32.44
2022-08-05T07:29:08.845Z,32.65
2022-08-05T07:30:27.677Z,32.90
2022-08-05T07:31:09.822Z,33.15
2022-08-05T07:32:08.795Z,33.34
2022-08-05T07:33:09.382Z,33.50
2022-08-05T07:34:08.790Z,33.60
2022-08-05T07:36:02.995Z,33.63
2022-08-05T07:36:20.335Z,33.78
2022-08-05T07:37:11.742Z,34.09
2022-08-05T07:38:12.425Z,34.34
2022-08-05T07:39:24.629Z,34.50
2022-08-05T07:40:32.048Z,34.43
2022-08-05T07:42:07.407Z,34.30
2022-08-05T07:42:15.106Z,34.12
2022-08-05T07:43:20.510Z,33.94
2022-08-05T07:44:14.523Z,33.78
2022-08-05T07:45:09.620Z,33.60
2022-08-05T07:46:24.215Z,33.56
2022-08-05T07:47:10.177Z,33.75
2022-08-05T07:48:09.566Z,34.18
2022-08-05T07:49:08.550Z,34.34
2022-08-05T07:50:08.554Z,34.80
2022-08-05T07:51:23.765Z,35.29
2022-08-05T07:52:09.627Z,35.62
2022-08-05T07:53:08.525Z,35.78
2022-08-05T07:54:10.018Z,36.06
2022-08-05T07:55:15.861Z,36.30
2022-08-05T07:57:00.202Z,36.57
2022-08-05T07:57:41.529Z,36.83
2022-08-05T07:58:09.749Z,37.02
2022-08-05T07:59:09.430Z,37.25
2022-08-05T08:00:11.352Z,37.34
2022-08-05T08:01:12.332Z,37.21
2022-08-05T08:02:15.575Z,36.97
2022-08-05T08:03:15.150Z,36.86
2022-08-05T08:04:09.401Z,36.78
2022-08-05T08:05:08.399Z,36.87
2022-08-05T08:06:08.407Z,36.75
2022-08-05T08:07:08.327Z,36.62
2022-08-05T08:08:12.450Z,36.52
2022-08-05T08:09:08.318Z,36.30
2022-08-05T08:10:08.322Z,36.11
2022-08-05T08:11:08.783Z,36.11
2022-08-05T08:12:19.040Z,36.33
2022-08-05T08:13:09.269Z,36.59
2022-08-05T08:14:08.251Z,36.86
2022-08-05T08:15:13.981Z,37.12
2022-08-05T08:16:35.841Z,37.33
2022-08-05T08:17:09.193Z,37.59
2022-08-05T08:18:13.864Z,37.72
2022-08-05T08:19:09.219Z,37.62
2022-08-05T08:20:22.605Z,37.59
2022-08-05T08:21:09.696Z,37.54
2022-08-05T08:22:09.207Z,37.35
2022-08-05T08:23:59.863Z,37.39
2022-08-05T08:24:13.560Z,37.33
2022-08-05T08:25:16.137Z,37.23
2022-08-05T08:26:09.103Z,37.08
2022-08-05T08:27:08.094Z,36.82
2022-08-05T08:28:18.213Z,36.57
2022-08-05T08:30:03.779Z,36.28
2022-08-05T08:30:29.810Z,35.95
2022-08-05T08:31:09.028Z,35.65
2022-08-05T08:32:10.824Z,35.34
2022-08-05T08:33:08.204Z,35.05
2022-08-05T08:34:07.994Z,34.87
2022-08-05T08:35:13.452Z,34.64
2022-08-05T08:37:08.950Z,34.26
2022-08-05T08:38:07.964Z,34.09
2022-08-05T08:39:15.123Z,33.97
2022-08-05T08:40:08.928Z,33.84
2022-08-05T08:41:07.911Z,33.65
2022-08-05T08:42:11.055Z,33.47
2022-08-05T08:45:16.088Z,33.24
2022-08-05T08:45:22.763Z,33.09
2022-08-05T08:45:23.662Z,32.96
2022-08-05T08:46:09.862Z,32.83
2022-08-05T08:47:47.487Z,32.73
2022-08-05T08:48:22.580Z,32.65
2022-08-05T08:50:06.048Z,32.58
2022-08-05T08:50:29.821Z,32.49
2022-08-05T08:51:30.655Z,32.36
2022-08-05T08:52:13.502Z,32.31
2022-08-05T08:53:11.971Z,32.25
2022-08-05T08:54:07.760Z,32.17
2022-08-05T08:55:13.219Z,32.09
2022-08-05T08:56:08.719Z,32.06
2022-08-05T08:57:11.435Z,31.99
2022-08-05T08:58:08.682Z,31.99
2022-08-05T08:59:14.744Z,31.97
2022-08-05T09:00:08.673Z,31.94
2022-08-05T09:01:07.726Z,32.17
2022-08-05T09:02:08.668Z,32.54
2022-08-05T09:03:07.629Z,32.99
2022-08-05T09:04:07.709Z,33.35
2022-08-05T09:05:17.883Z,33.63
2022-08-05T09:06:11.575Z,33.92
2022-08-05T09:07:10.668Z,34.12
2022-08-05T09:08:09.739Z,34.28
2022-08-05T09:09:07.576Z,34.48
2022-08-05T09:10:07.561Z,34.71
2022-08-05T09:11:07.541Z,34.76
2022-08-05T09:12:19.982Z,34.90
2022-08-05T09:13:08.499Z,35.09
2022-08-05T09:14:54.095Z,35.25
2022-08-05T09:15:08.486Z,35.39
2022-08-05T09:16:07.453Z,35.42
2022-08-05T09:17:09.443Z,35.27
2022-08-05T09:18:08.783Z,35.09
2022-08-05T09:19:07.505Z,34.98
2022-08-05T09:20:07.568Z,34.88
2022-08-05T09:21:11.615Z,34.90
2022-08-05T09:22:21.799Z,34.88
2022-08-05T09:23:09.518Z,34.83
2022-08-05T09:24:07.397Z,34.67
2022-08-05T09:25:13.510Z,34.60
2022-08-05T09:26:09.212Z,34.56
2022-08-05T09:27:07.355Z,34.67
2022-08-05T09:28:07.364Z,34.83
2022-08-05T09:29:07.317Z,34.99
2022-08-05T09:30:07.285Z,35.10
2022-08-05T09:31:43.339Z,35.13
2022-08-05T09:32:41.513Z,35.18
2022-08-05T09:33:08.259Z,35.18
2022-08-05T09:34:09.824Z,35.10
2022-08-05T09:35:07.226Z,34.91
2022-08-05T09:36:11.771Z,34.65
2022-08-05T09:37:14.968Z,34.45
2022-08-05T09:38:16.535Z,34.23
2022-08-05T09:39:17.959Z,34.11
2022-08-05T09:40:08.227Z,33.96
2022-08-05T09:41:07.161Z,33.96
2022-08-05T09:42:08.439Z,34.05
2022-08-05T09:43:08.370Z,34.11
2022-08-05T09:44:07.118Z,34.15
2022-08-05T09:46:05.015Z,34.08
2022-08-05T09:46:08.864Z,34.01
2022-08-05T09:47:10.393Z,34.12
2022-08-05T09:48:08.070Z,34.31
2022-08-05T09:49:19.493Z,34.43
2022-08-05T09:50:08.332Z,34.55
2022-08-05T09:51:14.976Z,34.72
2022-08-05T09:52:08.080Z,34.90
2022-08-05T09:53:06.991Z,35.06
2022-08-05T09:54:06.992Z,35.25
2022-08-05T09:55:55.636Z,35.42
2022-08-05T09:56:13.270Z,35.44
2022-08-05T09:57:23.198Z,35.47
2022-08-05T09:58:07.935Z,35.55
2022-08-05T09:59:06.941Z,35.62
2022-08-05T10:00:07.878Z,35.71
2022-08-05T10:01:14.821Z,35.58
2022-08-05T10:02:07.888Z,35.37
2022-08-05T10:03:06.932Z,35.13
2022-08-05T10:04:10.413Z,34.86
2022-08-05T10:05:07.984Z,34.61
2022-08-05T10:06:15.532Z,34.45
2022-08-05T10:07:20.741Z,34.46
2022-08-05T10:08:36.917Z,34.53
2022-08-05T10:09:07.852Z,34.56
2022-08-05T10:10:15.555Z,34.52
2022-08-05T10:11:07.789Z,34.52
2022-08-05T10:12:18.774Z,34.52
2022-08-05T10:13:09.905Z,34.58
2022-08-05T10:14:06.742Z,34.65
2022-08-05T10:15:06.753Z,34.73
2022-08-05T10:16:06.713Z,34.69
2022-08-05T10:17:06.694Z,34.63
2022-08-05T10:18:07.711Z,34.60
2022-08-05T10:19:09.167Z,34.58
2022-08-05T10:20:10.070Z,34.56
2022-08-05T10:21:11.756Z,34.64
2022-08-05T10:22:07.694Z,34.72
2022-08-05T10:23:08.962Z,34.87
2022-08-05T10:24:10.669Z,35.00
2022-08-05T10:25:06.649Z,35.13
2022-08-05T10:26:07.121Z,35.21
2022-08-05T10:27:07.560Z,35.25
2022-08-05T10:28:13.510Z,35.34
2022-08-05T10:29:07.575Z,35.42
2022-08-05T10:31:21.048Z,35.46
2022-08-05T10:32:54.652Z,35.64
2022-08-05T10:32:54.654Z,35.76
2022-08-05T10:33:09.260Z,35.89
2022-08-05T10:34:08.146Z,35.93
2022-08-05T10:35:06.472Z,35.83
2022-08-05T10:36:06.459Z,35.73
2022-08-05T10:37:06.447Z,35.68
2022-08-05T10:38:06.437Z,35.58
2022-08-05T10:39:10.279Z,35.49
2022-08-05T10:40:19.465Z,35.39
2022-08-05T10:41:07.486Z,35.29
2022-08-05T10:42:06.385Z,35.20
2022-08-05T10:43:06.368Z,35.13
2022-08-05T10:44:06.372Z,35.18
2022-08-05T10:45:09.607Z,35.20
2022-08-05T10:46:07.333Z,35.17
2022-08-05T10:47:06.319Z,35.12
2022-08-05T10:48:31.421Z,35.00
2022-08-05T10:49:10.135Z,34.91
2022-08-05T10:50:20.877Z,34.90
2022-08-05T10:51:21.777Z,34.90
2022-08-05T10:52:10.532Z,34.88
2022-08-05T10:53:06.269Z,34.84
2022-08-05T10:54:28.227Z,34.83
2022-08-05T10:55:07.220Z,34.81
2022-08-05T10:56:14.906Z,34.87
2022-08-05T10:57:07.192Z,34.90
2022-08-05T10:58:06.180Z,34.94
2022-08-05T10:59:12.465Z,34.83
2022-08-05T11:00:11.033Z,34.75
2022-08-05T11:01:07.153Z,34.72
2022-08-05T11:02:06.153Z,34.71
2022-08-05T11:03:23.424Z,34.72
2022-08-05T11:04:07.143Z,34.72
2022-08-05T11:05:06.114Z,34.83
2022-08-05T11:06:06.082Z,34.86
2022-08-05T11:07:06.072Z,34.76
2022-08-05T11:08:27.659Z,34.76
2022-08-05T11:09:07.053Z,34.76
2022-08-05T11:10:09.962Z,34.86
2022-08-05T11:11:14.577Z,35.03
2022-08-05T11:12:07.003Z,35.17
2022-08-05T11:13:06.024Z,35.31
2022-08-05T11:14:06.066Z,35.42
2022-08-05T11:15:19.427Z,35.50
2022-08-05T11:16:06.953Z,35.56
2022-08-05T11:18:00.087Z,35.61
2022-08-05T11:18:06.936Z,35.69
2022-08-05T11:20:11.337Z,35.81
2022-08-05T11:20:11.399Z,35.91
2022-08-05T11:21:11.597Z,36.00
2022-08-05T11:22:06.885Z,36.13
2022-08-05T11:23:08.933Z,36.22
2022-08-05T11:24:29.757Z,36.23
2022-08-05T11:26:03.409Z,36.30
2022-08-05T11:26:08.567Z,36.25
2022-08-05T11:27:05.826Z,36.21
2022-08-05T11:28:05.807Z,36.25
2022-08-05T11:29:13.345Z,36.30
2022-08-05T11:30:06.797Z,36.35
2022-08-05T11:31:06.551Z,36.38
2022-08-05T11:32:05.784Z,36.49
2022-08-05T11:33:05.757Z,36.62
2022-08-05T11:34:08.202Z,36.75
2022-08-05T11:35:05.748Z,36.86
2022-08-05T11:36:08.170Z,36.96
2022-08-05T11:37:55.145Z,36.96
2022-08-05T11:38:28.356Z,36.89
2022-08-05T11:39:06.739Z,36.72
2022-08-05T11:40:05.724Z,36.65
2022-08-05T11:41:34.611Z,36.57
2022-08-05T11:42:06.646Z,36.52
2022-08-05T11:43:05.619Z,36.33
2022-08-05T11:44:08.328Z,36.21
2022-08-05T11:45:05.670Z,36.15
2022-08-05T11:46:27.365Z,36.18
2022-08-05T11:47:12.054Z,36.15
2022-08-05T11:48:06.589Z,36.11
2022-08-05T11:49:08.060Z,36.15
2022-08-05T11:50:05.543Z,36.23
2022-08-05T11:51:05.520Z,36.30
2022-08-05T11:52:11.475Z,36.27
2022-08-05T11:53:09.973Z,36.25
2022-08-05T11:54:05.533Z,36.23
2022-08-05T11:55:07.453Z,36.22
2022-08-05T11:56:05.525Z,36.22
2022-08-05T11:57:08.131Z,36.16
2022-08-05T11:58:08.146Z,36.12
2022-08-05T11:59:13.600Z,36.08
2022-08-05T12:00:06.452Z,36.02
2022-08-05T12:01:08.500Z,36.13
2022-08-05T12:02:06.391Z,36.22
2022-08-05T12:03:06.401Z,36.28
2022-08-05T12:04:05.372Z,36.28
2022-08-05T12:05:08.112Z,36.33
2022-08-05T12:06:10.003Z,36.40
2022-08-05T12:07:05.326Z,36.40
2022-08-05T12:08:10.799Z,36.37
2022-08-05T12:09:06.322Z,36.31
2022-08-05T12:10:09.425Z,36.35
2022-08-05T12:11:06.449Z,36.35
2022-08-05T12:12:05.263Z,36.38
2022-08-05T12:13:15.811Z,36.55
2022-08-05T12:14:06.311Z,36.65
2022-08-05T12:15:05.246Z,36.78
2022-08-05T12:16:14.252Z,36.90
2022-08-05T12:18:00.530Z,36.90
2022-08-05T12:18:10.585Z,36.84
2022-08-05T12:19:08.139Z,36.74
2022-08-05T12:20:16.815Z,36.62
2022-08-05T12:21:06.162Z,36.44
2022-08-05T12:22:05.136Z,36.41
2022-08-05T12:23:05.148Z,36.34
2022-08-05T12:24:07.034Z,36.34
2022-08-05T12:25:05.097Z,36.38
2022-08-05T12:26:05.113Z,36.44
2022-08-05T12:27:09.898Z,36.43
2022-08-05T12:28:06.077Z,36.33
2022-08-05T12:29:05.073Z,36.18
2022-08-05T12:30:05.036Z,36.05
2022-08-05T12:31:05.051Z,35.93
2022-08-05T12:32:05.034Z,35.85
2022-08-05T12:33:07.165Z,35.83
2022-08-05T12:34:05.988Z,35.83
2022-08-05T12:35:04.978Z,35.76
2022-08-05T12:36:07.035Z,35.65
2022-08-05T12:37:04.958Z,35.59
2022-08-05T12:38:04.951Z,35.58
2022-08-05T12:39:06.856Z,35.58
2022-08-05T12:40:10.396Z,35.56
2022-08-05T12:41:09.670Z,35.54
2022-08-05T12:42:05.900Z,35.47
2022-08-05T12:43:04.900Z,35.43
2022-08-05T12:44:04.859Z,35.44
2022-08-05T12:45:08.935Z,35.44
2022-08-05T12:46:05.862Z,35.49
2022-08-05T12:47:04.841Z,35.56
2022-08-05T12:48:26.850Z,35.55
2022-08-05T12:49:12.942Z,35.54
2022-08-05T12:50:07.202Z,35.50
2022-08-05T12:51:04.790Z,35.50
2022-08-05T12:52:12.321Z,35.52
2022-08-05T12:53:05.761Z,35.47